createdAt,value
2023-05-10T00:01:15.105Z,2.66
2023-05-10T00:03:45.547Z,2.75
2023-05-10T00:06:16.102Z,2.91
2023-05-10T00:08:48.742Z,3.16
2023-05-10T00:11:20.036Z,3.10
2023-05-10T00:13:52.013Z,2.95
2023-05-10T00:16:22.522Z,2.90
2023-05-10T00:18:52.987Z,2.92
2023-05-10T00:21:23.354Z,2.89
2023-05-10T00:23:55.366Z,2.95
2023-05-10T00:26:25.767Z,2.98
2023-05-10T00:28:56.300Z,3.00
2023-05-10T00:31:26.686Z,2.99
2023-05-10T00:34:00.118Z,3.03
2023-05-10T00:36:31.067Z,3.15
2023-05-10T00:39:03.210Z,3.13
2023-05-10T00:41:34.585Z,3.16
2023-05-10T00:44:05.114Z,3.10
2023-05-10T00:46:35.707Z,3.07
2023-05-10T00:49:06.539Z,2.82
2023-05-10T00:51:38.303Z,3.12
2023-05-10T00:54:10.450Z,3.16
2023-05-10T00:56:41.241Z,3.23
2023-05-10T00:59:12.384Z,3.26
2023-05-10T01:01:42.946Z,3.28
2023-05-10T01:04:14.507Z,3.23
2023-05-10T01:06:45.298Z,3.31
2023-05-10T01:09:17.328Z,3.35
2023-05-10T01:11:48.115Z,3.40
2023-05-10T01:14:21.782Z,3.20
2023-05-10T01:16:53.719Z,3.17
2023-05-10T01:19:27.518Z,2.83
2023-05-10T01:22:06.008Z,3.16
2023-05-10T01:25:09.199Z,3.34
2023-05-10T01:28:10.530Z,3.52
2023-05-10T01:31:11.686Z,3.43
2023-05-10T01:33:50.620Z,3.62
2023-05-10T01:36:28.711Z,3.83
2023-05-10T01:39:06.613Z,3.77
2023-05-10T01:41:48.816Z,3.79
2023-05-10T01:44:26.998Z,3.74
2023-05-10T01:47:05.332Z,3.81
2023-05-10T01:49:44.824Z,3.97
2023-05-10T01:52:19.471Z,3.34
2023-05-10T01:54:57.474Z,3.78
2023-05-10T01:57:31.417Z,3.54
2023-05-10T02:00:03.197Z,3.36
2023-05-10T02:02:36.982Z,3.27
2023-05-10T02:05:10.375Z,3.03
2023-05-10T02:07:41.444Z,3.44
2023-05-10T02:10:14.500Z,3.41
2023-05-10T02:12:47.182Z,3.34
2023-05-10T02:15:22.816Z,3.18
2023-05-10T02:17:53.969Z,3.25
2023-05-10T02:20:27.494Z,3.35
2023-05-10T02:23:00.438Z,3.12
2023-05-10T02:25:32.254Z,3.20
2023-05-10T02:28:06.166Z,3.08
2023-05-10T02:30:38.709Z,2.91
2023-05-10T02:33:10.104Z,2.91
2023-05-10T02:35:43.163Z,3.10
2023-05-10T02:38:15.192Z,3.02
2023-05-10T02:40:46.728Z,3.02
2023-05-10T02:43:19.967Z,2.45
2023-05-10T02:45:52.778Z,2.66
2023-05-10T02:48:23.595Z,2.46
2023-05-10T02:50:58.732Z,2.51
2023-05-10T02:53:35.944Z,2.31
2023-05-10T02:56:11.775Z,2.54
2023-05-10T02:58:42.386Z,2.57
2023-05-10T03:01:13.168Z,2.65
2023-05-10T03:03:43.644Z,2.63
2023-05-10T03:06:15.734Z,2.68
2023-05-10T03:08:47.307Z,2.61
2023-05-10T03:11:37.001Z,2.54
2023-05-10T03:14:20.783Z,2.53
2023-05-10T03:17:00.220Z,2.59
2023-05-10T03:19:45.829Z,2.72
2023-05-10T03:22:28.772Z,2.74
2023-05-10T03:25:01.851Z,2.77
2023-05-10T03:27:35.056Z,2.93
2023-05-10T03:30:08.364Z,2.49
2023-05-10T03:32:39.640Z,2.95
2023-05-10T03:35:12.340Z,2.99
2023-05-10T03:37:44.905Z,3.07
2023-05-10T03:40:17.633Z,3.01
2023-05-10T03:42:49.531Z,3.01
2023-05-10T03:45:20.581Z,3.10
2023-05-10T03:47:51.641Z,2.99
2023-05-10T03:50:33.274Z,2.87
2023-05-10T03:53:15.504Z,2.81
2023-05-10T03:55:46.825Z,2.87
2023-05-10T03:58:17.568Z,2.95
2023-05-10T04:00:48.570Z,2.84
2023-05-10T04:03:19.672Z,2.77
2023-05-10T04:05:50.230Z,2.79
2023-05-10T04:08:22.460Z,2.92
2023-05-10T04:10:52.861Z,3.10
2023-05-10T04:13:23.276Z,2.96
2023-05-10T04:15:53.814Z,2.97
2023-05-10T04:18:24.373Z,2.84
2023-05-10T04:20:54.928Z,2.72
2023-05-10T04:23:27.103Z,2.83
2023-05-10T04:26:03.147Z,2.77
2023-05-10T04:28:33.586Z,2.71
2023-05-10T04:31:07.395Z,2.86
2023-05-10T04:33:38.302Z,2.59
2023-05-10T04:36:09.494Z,2.63
2023-05-10T04:38:41.859Z,2.76
2023-05-10T04:41:13.295Z,2.70
2023-05-10T04:43:43.718Z,2.35
2023-05-10T04:46:14.105Z,2.52
2023-05-10T04:48:44.575Z,2.66
2023-05-10T04:51:15.099Z,2.58
2023-05-10T04:53:57.644Z,2.45
2023-05-10T04:56:34.802Z,2.48
2023-05-10T04:59:05.335Z,2.31
2023-05-10T05:01:35.838Z,2.33
2023-05-10T05:04:06.847Z,2.42
2023-05-10T05:06:37.466Z,2.34
2023-05-10T05:09:09.658Z,2.28
2023-05-10T05:11:40.194Z,2.22
2023-05-10T05:14:10.728Z,2.13
2023-05-10T05:16:41.331Z,2.20
2023-05-10T05:19:11.923Z,2.19
2023-05-10T05:21:42.400Z,2.20
2023-05-10T05:24:14.896Z,2.11
2023-05-10T05:26:45.422Z,2.09
2023-05-10T05:29:15.879Z,1.87
2023-05-10T05:31:46.488Z,1.98
2023-05-10T05:34:16.991Z,2.08
2023-05-10T05:36:47.538Z,2.14
2023-05-10T05:39:19.732Z,2.01
2023-05-10T05:41:50.162Z,2.19
2023-05-10T05:44:20.587Z,2.12
2023-05-10T05:46:51.105Z,2.09
2023-05-10T05:49:21.728Z,1.75
2023-05-10T05:51:52.447Z,2.10
2023-05-10T05:54:24.722Z,2.03
2023-05-10T05:56:58.418Z,2.01
2023-05-10T05:59:30.710Z,1.90
2023-05-10T06:02:02.559Z,1.89
2023-05-10T06:04:33.519Z,1.83
2023-05-10T06:07:04.152Z,1.90
2023-05-10T06:09:36.233Z,1.92
2023-05-10T06:12:06.994Z,1.94
2023-05-10T06:14:37.489Z,1.98
2023-05-10T06:17:08.608Z,1.98
2023-05-10T06:19:39.318Z,1.99
2023-05-10T06:22:09.849Z,1.88
2023-05-10T06:24:41.992Z,1.79
2023-05-10T06:27:12.589Z,1.70
2023-05-10T06:29:43.591Z,1.73
2023-05-10T06:32:14.004Z,1.71
2023-05-10T06:34:45.459Z,1.72
2023-05-10T06:37:16.972Z,1.73
2023-05-10T06:39:50.118Z,1.71
2023-05-10T06:42:34.352Z,1.66
2023-05-10T06:45:06.090Z,1.68
2023-05-10T06:47:39.281Z,1.62
2023-05-10T06:50:16.006Z,1.61
2023-05-10T06:52:47.620Z,1.61
2023-05-10T06:55:20.446Z,1.49
2023-05-10T06:57:54.096Z,1.52
2023-05-10T07:00:26.497Z,1.40
2023-05-10T07:02:58.908Z,1.36
2023-05-10T07:05:31.830Z,1.31
2023-05-10T07:08:03.907Z,1.16
2023-05-10T07:10:37.867Z,1.31
2023-05-10T07:13:09.486Z,1.26
2023-05-10T07:15:49.408Z,1.12
2023-05-10T07:18:21.148Z,1.29
2023-05-10T07:20:52.436Z,1.24
2023-05-10T07:23:23.976Z,1.20
2023-05-10T07:25:57.592Z,1.35
2023-05-10T07:28:32.104Z,1.35
2023-05-10T07:31:03.618Z,1.15
2023-05-10T07:33:35.176Z,1.28
2023-05-10T07:36:08.335Z,0.94
2023-05-10T07:38:44.120Z,1.25
2023-05-10T07:41:40.708Z,1.23
2023-05-10T07:44:12.189Z,0.83
2023-05-10T07:46:44.289Z,1.12
2023-05-10T07:49:15.569Z,1.08
2023-05-10T07:51:47.025Z,1.10
2023-05-10T07:54:19.389Z,1.09
2023-05-10T07:56:53.058Z,0.80
2023-05-10T07:59:25.060Z,1.09
2023-05-10T08:01:56.785Z,0.84
2023-05-10T08:04:28.286Z,1.02
2023-05-10T08:07:00.125Z,0.99
2023-05-10T08:09:31.464Z,0.97
2023-05-10T08:12:04.529Z,0.97
2023-05-10T08:14:35.954Z,0.92
2023-05-10T08:17:07.475Z,0.90
2023-05-10T08:19:38.786Z,0.83
2023-05-10T08:22:10.711Z,0.80
2023-05-10T08:24:43.922Z,0.74
2023-05-10T08:27:17.053Z,0.71
2023-05-10T08:29:50.380Z,0.77
2023-05-10T08:32:22.167Z,0.70
2023-05-10T08:34:53.582Z,0.69
2023-05-10T08:37:25.053Z,0.71
2023-05-10T08:39:56.720Z,0.69
2023-05-10T08:42:33.284Z,0.28
2023-05-10T08:45:05.671Z,0.65
2023-05-10T08:47:37.380Z,0.62
2023-05-10T08:50:10.371Z,0.62
2023-05-10T08:52:44.462Z,0.62
2023-05-10T08:55:16.279Z,0.59
2023-05-10T08:57:49.968Z,0.62
2023-05-10T09:03:09.197Z,0.57
2023-05-10T09:05:41.732Z,0.59
2023-05-10T09:08:14.039Z,0.37
2023-05-10T09:10:49.230Z,0.56
2023-05-10T09:13:23.349Z,0.55
2023-05-10T09:15:55.733Z,0.51
2023-05-10T09:18:28.126Z,0.53
2023-05-10T09:20:59.944Z,0.52
2023-05-10T09:23:34.328Z,0.54
2023-05-10T09:26:08.989Z,0.51
2023-05-10T09:28:56.583Z,0.48
2023-05-10T09:31:29.210Z,0.45
2023-05-10T09:34:06.767Z,0.36
2023-05-10T09:36:38.327Z,0.49
2023-05-10T09:39:09.975Z,0.47
2023-05-10T09:41:41.166Z,-0.32
2023-05-10T09:44:14.864Z,0.42
2023-05-10T09:46:46.265Z,0.40
2023-05-10T09:49:20.115Z,0.38
2023-05-10T09:51:51.548Z,0.37
2023-05-10T09:54:23.178Z,0.29
2023-05-10T09:56:54.651Z,0.25
2023-05-10T09:59:30.323Z,0.23
2023-05-10T10:02:02.601Z,0.22
2023-05-10T10:04:34.132Z,0.23
2023-05-10T10:07:07.459Z,0.15
2023-05-10T10:09:39.864Z,0.11
2023-05-10T10:12:11.868Z,0.21
2023-05-10T10:14:45.773Z,0.11
2023-05-10T10:17:17.662Z,0.21
2023-05-10T10:19:49.945Z,0.21
2023-05-10T10:22:22.188Z,0.06
2023-05-10T10:24:54.817Z,0.01
2023-05-10T10:27:31.401Z,0.26
2023-05-10T10:30:17.712Z,0.24
2023-05-10T10:33:27.738Z,-0.27
2023-05-10T10:36:03.003Z,0.15
2023-05-10T10:38:42.903Z,-0.17
2023-05-10T10:41:31.324Z,-0.09
2023-05-10T10:44:40.824Z,0.11
2023-05-10T10:47:31.286Z,0.13
2023-05-10T10:50:11.559Z,0.11
2023-05-10T10:52:43.982Z,0.11
2023-05-10T10:55:17.221Z,0.10
2023-05-10T10:58:02.658Z,0.06
2023-05-10T11:00:35.623Z,0.05
2023-05-10T11:03:11.256Z,0.08
2023-05-10T11:05:46.634Z,-0.15
2023-05-10T11:08:23.935Z,0.10
2023-05-10T11:10:58.332Z,-0.18
2023-05-10T11:13:33.977Z,0.07
2023-05-10T11:16:18.852Z,0.07
2023-05-10T11:19:04.258Z,0.07
2023-05-10T11:21:36.982Z,-0.03
2023-05-10T11:24:18.256Z,0.05
2023-05-10T11:26:49.750Z,0.05
2023-05-10T11:29:21.393Z,-0.38
2023-05-10T11:31:53.871Z,-0.39
2023-05-10T11:34:35.834Z,-0.04
2023-05-10T11:37:07.454Z,0.03
2023-05-10T11:39:39.072Z,0.02
2023-05-10T11:42:11.607Z,0.00
2023-05-10T11:44:43.483Z,0.02
2023-05-10T11:47:24.982Z,-0.14
2023-05-10T11:49:58.986Z,0.02
2023-05-10T11:52:33.441Z,-0.25
2023-05-10T11:55:05.230Z,-0.04
2023-05-10T11:57:41.536Z,-0.08
2023-05-10T12:00:14.490Z,0.03
2023-05-10T12:02:46.859Z,0.02
2023-05-10T12:05:20.901Z,-0.02
2023-05-10T12:07:54.506Z,-0.13
2023-05-10T12:10:31.703Z,-0.06
2023-05-10T12:13:18.825Z,-0.06
2023-05-10T12:15:50.365Z,-0.07
2023-05-10T12:18:35.809Z,-0.20
2023-05-10T12:21:09.788Z,-0.06
2023-05-10T12:23:40.384Z,-0.13
2023-05-10T12:26:13.506Z,-0.08
2023-05-10T12:28:44.221Z,-0.09
2023-05-10T12:31:14.791Z,-0.20
2023-05-10T12:33:47.146Z,-0.56
2023-05-10T12:36:20.494Z,-0.11
2023-05-10T12:38:51.725Z,-0.11
2023-05-10T12:41:23.395Z,-0.14
2023-05-10T12:43:55.037Z,-0.11
2023-05-10T12:46:27.074Z,-0.10
2023-05-10T12:49:08.068Z,-0.09
2023-05-10T12:51:41.486Z,-0.10
2023-05-10T12:54:12.086Z,-0.11
2023-05-10T12:56:42.905Z,-0.12
2023-05-10T12:59:15.569Z,-0.50
2023-05-10T13:01:48.141Z,-0.07
2023-05-10T13:04:18.746Z,-0.06
2023-05-10T13:06:51.212Z,-0.08
2023-05-10T13:09:22.338Z,-0.19
2023-05-10T13:11:55.270Z,-0.35
2023-05-10T13:14:25.938Z,-0.18
2023-05-10T13:16:56.622Z,-0.24
2023-05-10T13:19:29.692Z,-0.22
2023-05-10T13:22:03.906Z,-0.22
2023-05-10T13:24:34.568Z,-0.23
2023-05-10T13:27:05.139Z,-0.27
2023-05-10T13:29:38.854Z,-0.22
2023-05-10T13:32:09.710Z,-0.21
2023-05-10T13:34:40.352Z,-0.19
2023-05-10T13:37:17.258Z,-0.15
2023-05-10T13:39:50.892Z,-0.17
2023-05-10T13:42:21.679Z,-0.23
2023-05-10T13:44:54.783Z,-0.24
2023-05-10T13:47:25.436Z,-0.21
2023-05-10T13:49:55.986Z,-0.25
2023-05-10T13:52:29.909Z,-0.18
2023-05-10T13:55:00.528Z,-0.16
2023-05-10T13:57:32.094Z,-0.15
2023-05-10T14:00:02.698Z,-0.14
2023-05-10T14:02:35.393Z,-0.06
2023-05-10T14:05:06.032Z,-0.15
2023-05-10T14:07:38.207Z,-0.09
2023-05-10T14:10:09.454Z,-0.09
2023-05-10T14:12:40.102Z,-0.49
2023-05-10T14:15:13.214Z,-0.22
2023-05-10T14:17:43.722Z,-0.12
2023-05-10T14:20:15.234Z,-0.16
2023-05-10T14:22:47.360Z,-0.09
2023-05-10T14:25:19.098Z,-0.09
2023-05-10T14:27:50.016Z,-0.17
2023-05-10T14:30:22.680Z,-0.10
2023-05-10T14:32:53.236Z,-0.10
2023-05-10T14:35:26.325Z,-0.09
2023-05-10T14:37:58.391Z,-0.08
2023-05-10T14:40:28.948Z,-0.10
2023-05-10T14:42:59.769Z,-0.10
2023-05-10T14:45:30.730Z,-0.15
2023-05-10T14:48:01.683Z,-0.36
2023-05-10T14:50:37.004Z,-0.12
2023-05-10T14:53:09.580Z,-0.10
2023-05-10T14:55:40.181Z,-0.14
2023-05-10T14:58:10.662Z,-0.17
2023-05-10T15:00:47.705Z,-0.17
2023-05-10T15:03:18.887Z,-0.41
2023-05-10T15:05:55.235Z,-0.19
2023-05-10T15:08:27.419Z,-0.43
2023-05-10T15:10:58.782Z,-0.19
2023-05-10T15:13:29.334Z,-0.18
2023-05-10T15:15:59.972Z,-0.12
2023-05-10T15:18:30.538Z,-0.11
2023-05-10T15:21:04.030Z,-0.12
2023-05-10T15:23:36.178Z,-0.12
2023-05-10T15:26:06.786Z,-0.12
2023-05-10T15:28:37.372Z,-0.22
2023-05-10T15:31:08.002Z,-0.25
2023-05-10T15:33:39.968Z,-0.12
2023-05-10T15:36:16.026Z,-0.10
2023-05-10T15:38:50.946Z,-0.11
2023-05-10T15:41:21.368Z,-0.17
2023-05-10T15:43:54.702Z,-0.19
2023-05-10T15:46:27.518Z,-0.13
2023-05-10T15:49:04.614Z,-0.16
2023-05-10T15:51:38.540Z,-0.17
2023-05-10T15:54:13.756Z,-0.81
2023-05-10T15:56:45.625Z,-0.25
2023-05-10T15:59:19.145Z,-0.28
2023-05-10T16:01:52.908Z,-0.27
2023-05-10T16:04:23.540Z,-0.27
2023-05-10T16:06:54.245Z,-0.27
2023-05-10T16:09:28.225Z,-0.43
2023-05-10T16:11:59.840Z,-0.77
2023-05-10T16:14:30.378Z,-0.43
2023-05-10T16:17:05.479Z,-0.40
2023-05-10T16:19:36.232Z,-0.40
2023-05-10T16:22:09.569Z,-0.41
2023-05-10T16:24:46.291Z,-0.44
2023-05-10T16:27:19.436Z,-0.44
2023-05-10T16:29:51.220Z,-0.45
2023-05-10T16:32:24.798Z,-0.60
2023-05-10T16:34:58.304Z,-0.39
2023-05-10T16:37:32.998Z,-0.39
2023-05-10T16:40:07.476Z,-0.36
2023-05-10T16:42:37.986Z,-0.34
2023-05-10T16:45:09.831Z,-0.31
2023-05-10T16:47:42.658Z,-0.29
2023-05-10T16:50:18.961Z,-0.31
2023-05-10T16:52:49.699Z,-0.35
2023-05-10T16:55:22.958Z,-0.30
2023-05-10T16:58:00.444Z,-0.32
2023-05-10T17:00:31.024Z,-0.34
2023-05-10T17:03:01.736Z,-0.35
2023-05-10T17:05:32.929Z,-0.44
2023-05-10T17:08:03.669Z,-0.36
2023-05-10T17:10:36.532Z,-0.41
2023-05-10T17:13:08.119Z,-0.36
2023-05-10T17:15:41.096Z,-0.34
2023-05-10T17:18:11.983Z,-0.76
2023-05-10T17:20:42.738Z,-0.30
2023-05-10T17:23:13.323Z,-0.28
2023-05-10T17:25:45.620Z,-0.32
2023-05-10T17:28:16.239Z,-0.25
2023-05-10T17:30:49.313Z,-0.21
2023-05-10T17:33:19.876Z,-0.19
2023-05-10T17:35:50.430Z,-0.17
2023-05-10T17:38:21.049Z,-0.52
2023-05-10T17:40:54.437Z,-0.19
2023-05-10T17:43:26.824Z,-0.19
2023-05-10T17:45:57.191Z,-0.18
2023-05-10T17:48:28.198Z,-0.17
2023-05-10T17:50:58.678Z,-0.15
2023-05-10T17:53:29.090Z,-0.19
2023-05-10T17:56:02.394Z,-0.14
2023-05-10T17:58:32.780Z,-0.14
2023-05-10T18:01:03.214Z,-0.16
2023-05-10T18:03:33.828Z,-0.17
2023-05-10T18:06:05.054Z,-0.10
2023-05-10T18:08:35.608Z,-0.09
2023-05-10T18:11:07.692Z,-0.07
2023-05-10T18:13:38.164Z,-0.10
2023-05-10T18:16:09.613Z,-0.08
2023-05-10T18:18:40.243Z,-0.05
2023-05-10T18:21:10.820Z,-0.07
2023-05-10T18:23:41.358Z,-0.09
2023-05-10T18:26:15.564Z,-0.10
2023-05-10T18:28:46.056Z,-0.11
2023-05-10T18:31:17.257Z,-0.14
2023-05-10T18:33:48.136Z,-0.13
2023-05-10T18:36:18.649Z,-0.11
2023-05-10T18:38:52.728Z,-0.12
2023-05-10T18:41:27.570Z,-0.31
2023-05-10T18:44:07.654Z,-0.13
2023-05-10T18:46:37.489Z,-0.11
2023-05-10T18:49:09.309Z,-0.10
2023-05-10T18:51:39.768Z,-0.10
2023-05-10T18:54:10.197Z,-0.08
2023-05-10T18:56:45.321Z,-0.11
2023-05-10T18:59:16.628Z,-0.16
2023-05-10T19:01:48.376Z,-0.16
2023-05-10T19:04:20.759Z,-0.15
2023-05-10T19:06:51.277Z,-0.15
2023-05-10T19:09:23.194Z,-0.12
2023-05-10T19:11:55.552Z,-0.43
2023-05-10T19:14:26.039Z,-0.10
2023-05-10T19:16:56.787Z,-0.10
2023-05-10T19:19:27.497Z,-0.10
2023-05-10T19:21:58.008Z,-0.07
2023-05-10T19:24:28.563Z,-0.03
2023-05-10T19:27:01.890Z,-0.01
2023-05-10T19:29:35.030Z,0.03
2023-05-10T19:32:05.959Z,0.06
2023-05-10T19:34:36.326Z,0.14
2023-05-10T19:37:06.764Z,0.14
2023-05-10T19:39:37.159Z,0.21
2023-05-10T19:42:09.583Z,0.18
2023-05-10T19:44:40.103Z,0.21
2023-05-10T19:47:11.009Z,0.21
2023-05-10T19:49:41.503Z,0.23
2023-05-10T19:52:13.017Z,0.34
2023-05-10T19:54:44.833Z,0.37
2023-05-10T19:57:16.944Z,0.34
2023-05-10T19:59:47.379Z,0.34
2023-05-10T20:02:17.799Z,0.32
2023-05-10T20:04:49.344Z,0.22
2023-05-10T20:07:19.713Z,0.40
2023-05-10T20:09:50.433Z,0.36
2023-05-10T20:12:22.433Z,0.45
2023-05-10T20:14:52.890Z,0.47
2023-05-10T20:17:23.341Z,0.44
2023-05-10T20:19:54.023Z,0.38
2023-05-10T20:22:25.853Z,0.46
2023-05-10T20:24:59.413Z,0.41
2023-05-10T20:27:31.541Z,0.35
2023-05-10T20:30:02.000Z,0.26
2023-05-10T20:32:32.539Z,0.27
2023-05-10T20:35:03.047Z,0.31
2023-05-10T20:37:33.554Z,0.32
2023-05-10T20:40:04.274Z,0.37
2023-05-10T20:42:36.311Z,0.45
2023-05-10T20:45:07.232Z,0.48
2023-05-10T20:47:38.777Z,0.52
2023-05-10T20:50:10.176Z,0.54
2023-05-10T20:52:40.589Z,0.55
2023-05-10T20:55:11.752Z,0.60
2023-05-10T20:57:43.846Z,0.68
2023-05-10T21:00:15.483Z,0.75
2023-05-10T21:02:47.500Z,0.78
2023-05-10T21:05:17.946Z,0.84
2023-05-10T21:07:48.414Z,0.95
2023-05-10T21:10:18.984Z,1.05
2023-05-10T21:12:51.200Z,1.06
2023-05-10T21:15:23.357Z,1.03
2023-05-10T21:17:54.690Z,0.99
2023-05-10T21:20:26.144Z,0.94
2023-05-10T21:22:56.647Z,0.81
2023-05-10T21:25:27.067Z,0.92
2023-05-10T21:27:59.054Z,1.09
2023-05-10T21:30:30.024Z,1.23
2023-05-10T21:33:01.213Z,1.24
2023-05-10T21:35:32.457Z,1.32
2023-05-10T21:38:03.000Z,1.41
2023-05-10T21:40:33.505Z,1.52
2023-05-10T21:43:05.568Z,1.61
2023-05-10T21:45:37.213Z,1.62
2023-05-10T21:48:07.890Z,1.66
2023-05-10T21:50:38.403Z,1.58
2023-05-10T21:53:08.897Z,1.57
2023-05-10T21:55:39.372Z,1.83
2023-05-10T21:58:11.838Z,1.84
2023-05-10T22:00:42.308Z,1.81
2023-05-10T22:03:12.881Z,1.80
2023-05-10T22:05:43.425Z,1.89
2023-05-10T22:08:13.839Z,1.89
2023-05-10T22:10:44.261Z,1.71
2023-05-10T22:13:16.468Z,2.02
2023-05-10T22:15:47.097Z,2.02
2023-05-10T22:18:17.742Z,2.18
2023-05-10T22:20:50.325Z,2.33
2023-05-10T22:23:20.819Z,2.39
2023-05-10T22:25:51.456Z,2.69
2023-05-10T22:28:23.591Z,2.86
2023-05-10T22:30:54.416Z,2.91
2023-05-10T22:33:25.075Z,3.00
2023-05-10T22:35:55.549Z,3.16
2023-05-10T22:38:26.268Z,3.16
2023-05-10T22:40:56.783Z,3.31
2023-05-10T22:43:28.958Z,3.42
2023-05-10T22:45:59.559Z,3.59
2023-05-10T22:48:31.686Z,3.78
2023-05-10T22:51:02.296Z,3.98
2023-05-10T22:53:32.882Z,3.97
2023-05-10T22:56:03.386Z,4.27
2023-05-10T22:58:35.778Z,4.32
2023-05-10T23:01:06.310Z,4.41
2023-05-10T23:03:36.856Z,4.44
2023-05-10T23:06:08.031Z,4.53
2023-05-10T23:08:38.468Z,4.71
2023-05-10T23:11:08.963Z,4.72
2023-05-10T23:13:41.123Z,4.53
2023-05-10T23:16:11.864Z,4.42
2023-05-10T23:18:42.383Z,4.38
2023-05-10T23:21:12.872Z,4.39
2023-05-10T23:23:43.351Z,4.31
2023-05-10T23:26:13.822Z,4.19
2023-05-10T23:28:45.902Z,4.14
2023-05-10T23:31:16.482Z,4.23
2023-05-10T23:33:46.948Z,4.22
2023-05-10T23:36:17.433Z,4.49
2023-05-10T23:38:47.899Z,4.49
2023-05-10T23:41:18.298Z,4.67
2023-05-10T23:43:50.439Z,4.68
2023-05-10T23:46:21.030Z,4.85
2023-05-10T23:48:51.468Z,5.14
2023-05-10T23:51:22.040Z,4.89
2023-05-10T23:53:55.413Z,4.84
2023-05-10T23:56:25.990Z,4.75
2023-05-10T23:58:58.199Z,4.59
